Terminal Aerodrome Forecast
Issued by NWS Corpus Christi, TX

Home | Current Version | Previous Version | Text Only | Print | Product List | Glossary On
Versions: 1 2 3 4 5 6 7 8 9 10 11 12 13 14 15
000
FTUS44 KCRP 010500 CCA
TAFVCT
TAF COR
KVCT 010528Z 0106/0206 12005KT P6SM SCT012
     FM010700 VRB04KT 5SM BR SCT012
      TEMPO 0107/0109 2SM BR
     FM010900 VRB04KT 2SM BR BKN005
      TEMPO 0109/0113 1/2SM FG
     FM011500 17010KT P6SM SCT025
     FM020100 16008KT P6SM SCT015
      TEMPO 0204/0206 4SM BR=

USA.gov is the U.S. government's official web portal to all federal, state and local government web resources and services.